sensor_id;sensor_type;location;lat;lon;timestamp;P1;durP1;ratioP1;P2;durP2;ratioP2
47529;SDS011;33272;51.922;7.730;2022-10-17T00:00:40;6.17;;;5.53;;
47529;SDS011;33272;51.922;7.730;2022-10-17T00:03:07;6.63;;;5.30;;
47529;SDS011;33272;51.922;7.730;2022-10-17T00:05:37;5.90;;;5.40;;
47529;SDS011;33272;51.922;7.730;2022-10-17T00:08:06;6.73;;;6.00;;
47529;SDS011;33272;51.922;7.730;2022-10-17T00:10:33;6.90;;;6.10;;
47529;SDS011;33272;51.922;7.730;2022-10-17T00:13:01;6.20;;;5.60;;
47529;SDS011;33272;51.922;7.730;2022-10-17T00:15:29;6.90;;;6.30;;
47529;SDS011;33272;51.922;7.730;2022-10-17T00:17:56;6.57;;;5.97;;
47529;SDS011;33272;51.922;7.730;2022-10-17T00:20:23;5.83;;;5.13;;
47529;SDS011;33272;51.922;7.730;2022-10-17T00:22:50;6.67;;;6.07;;
47529;SDS011;33272;51.922;7.730;2022-10-17T00:25:18;7.63;;;5.77;;
47529;SDS011;33272;51.922;7.730;2022-10-17T00:27:45;6.80;;;6.20;;
47529;SDS011;33272;51.922;7.730;2022-10-17T00:30:14;6.97;;;6.27;;
47529;SDS011;33272;51.922;7.730;2022-10-17T00:32:41;6.10;;;5.57;;
47529;SDS011;33272;51.922;7.730;2022-10-17T00:35:08;6.50;;;5.80;;
47529;SDS011;33272;51.922;7.730;2022-10-17T00:37:35;7.00;;;6.30;;
47529;SDS011;33272;51.922;7.730;2022-10-17T00:40:03;6.70;;;6.03;;
47529;SDS011;33272;51.922;7.730;2022-10-17T00:42:31;6.70;;;6.00;;
47529;SDS011;33272;51.922;7.730;2022-10-17T00:45:04;7.80;;;5.97;;
47529;SDS011;33272;51.922;7.730;2022-10-17T00:47:47;6.60;;;5.90;;
47529;SDS011;33272;51.922;7.730;2022-10-17T00:50:20;7.47;;;6.43;;
47529;SDS011;33272;51.922;7.730;2022-10-17T00:52:49;7.10;;;6.40;;
47529;SDS011;33272;51.922;7.730;2022-10-17T00:55:17;7.63;;;6.83;;
47529;SDS011;33272;51.922;7.730;2022-10-17T00:57:48;7.47;;;6.33;;
47529;SDS011;33272;51.922;7.730;2022-10-17T01:00:17;7.90;;;6.10;;
47529;SDS011;33272;51.922;7.730;2022-10-17T01:02:46;6.07;;;5.57;;
47529;SDS011;33272;51.922;7.730;2022-10-17T01:05:14;6.60;;;6.00;;
47529;SDS011;33272;51.922;7.730;2022-10-17T01:07:42;6.93;;;6.33;;
47529;SDS011;33272;51.922;7.730;2022-10-17T01:10:10;7.10;;;5.93;;
47529;SDS011;33272;51.922;7.730;2022-10-17T01:12:47;6.97;;;6.30;;
47529;SDS011;33272;51.922;7.730;2022-10-17T01:15:35;6.43;;;5.83;;
47529;SDS011;33272;51.922;7.730;2022-10-17T01:18:16;7.87;;;7.17;;
47529;SDS011;33272;51.922;7.730;2022-10-17T01:21:01;7.97;;;5.97;;
47529;SDS011;33272;51.922;7.730;2022-10-17T01:27:21;6.57;;;5.83;;
47529;SDS011;33272;51.922;7.730;2022-10-17T01:30:17;6.93;;;5.87;;
47529;SDS011;33272;51.922;7.730;2022-10-17T01:33:25;6.90;;;6.20;;
47529;SDS011;33272;51.922;7.730;2022-10-17T01:36:06;7.10;;;5.67;;
47529;SDS011;33272;51.922;7.730;2022-10-17T01:38:39;6.20;;;5.60;;
47529;SDS011;33272;51.922;7.730;2022-10-17T01:41:13;6.50;;;5.90;;
47529;SDS011;33272;51.922;7.730;2022-10-17T01:43:52;6.50;;;5.77;;
47529;SDS011;33272;51.922;7.730;2022-10-17T01:46:26;6.47;;;5.77;;
47529;SDS011;33272;51.922;7.730;2022-10-17T01:49:00;6.17;;;5.57;;
47529;SDS011;33272;51.922;7.730;2022-10-17T01:51:30;8.23;;;5.37;;
47529;SDS011;33272;51.922;7.730;2022-10-17T01:54:04;6.83;;;4.70;;
47529;SDS011;33272;51.922;7.730;2022-10-17T01:56:36;6.50;;;5.10;;
47529;SDS011;33272;51.922;7.730;2022-10-17T01:59:08;6.00;;;5.40;;
47529;SDS011;33272;51.922;7.730;2022-10-17T02:01:40;6.50;;;5.50;;
47529;SDS011;33272;51.922;7.730;2022-10-17T02:04:10;5.97;;;5.00;;
47529;SDS011;33272;51.922;7.730;2022-10-17T02:06:38;5.90;;;5.30;;
47529;SDS011;33272;51.922;7.730;2022-10-17T02:09:17;5.93;;;5.43;;
47529;SDS011;33272;51.922;7.730;2022-10-17T02:11:52;7.00;;;5.90;;
47529;SDS011;33272;51.922;7.730;2022-10-17T02:14:43;6.57;;;5.30;;
47529;SDS011;33272;51.922;7.730;2022-10-17T02:17:26;5.23;;;4.70;;
47529;SDS011;33272;51.922;7.730;2022-10-17T02:20:13;5.73;;;5.23;;
47529;SDS011;33272;51.922;7.730;2022-10-17T02:22:48;7.93;;;6.20;;
47529;SDS011;33272;51.922;7.730;2022-10-17T02:25:22;6.53;;;5.50;;
47529;SDS011;33272;51.922;7.730;2022-10-17T02:28:04;5.63;;;5.03;;
47529;SDS011;33272;51.922;7.730;2022-10-17T02:30:42;6.50;;;5.40;;
47529;SDS011;33272;51.922;7.730;2022-10-17T02:33:16;5.80;;;5.27;;
47529;SDS011;33272;51.922;7.730;2022-10-17T02:35:51;6.07;;;5.47;;
47529;SDS011;33272;51.922;7.730;2022-10-17T02:38:22;7.60;;;5.47;;
47529;SDS011;33272;51.922;7.730;2022-10-17T02:40:52;7.13;;;5.30;;
47529;SDS011;33272;51.922;7.730;2022-10-17T02:43:21;6.30;;;4.90;;
47529;SDS011;33272;51.922;7.730;2022-10-17T02:45:48;6.40;;;5.20;;
47529;SDS011;33272;51.922;7.730;2022-10-17T02:48:17;8.10;;;5.20;;
47529;SDS011;33272;51.922;7.730;2022-10-17T02:50:56;8.43;;;5.30;;
47529;SDS011;33272;51.922;7.730;2022-10-17T02:53:32;5.63;;;5.03;;
47529;SDS011;33272;51.922;7.730;2022-10-17T02:56:07;6.83;;;5.23;;
47529;SDS011;33272;51.922;7.730;2022-10-17T02:58:42;7.47;;;5.07;;
47529;SDS011;33272;51.922;7.730;2022-10-17T03:01:14;6.33;;;5.53;;
47529;SDS011;33272;51.922;7.730;2022-10-17T03:03:42;6.50;;;5.50;;
47529;SDS011;33272;51.922;7.730;2022-10-17T03:06:10;6.80;;;5.83;;
47529;SDS011;33272;51.922;7.730;2022-10-17T03:08:37;7.47;;;5.90;;
47529;SDS011;33272;51.922;7.730;2022-10-17T03:11:04;6.53;;;5.47;;
47529;SDS011;33272;51.922;7.730;2022-10-17T03:13:31;6.07;;;5.47;;
47529;SDS011;33272;51.922;7.730;2022-10-17T03:15:59;5.70;;;5.20;;
47529;SDS011;33272;51.922;7.730;2022-10-17T03:18:26;6.97;;;5.03;;
47529;SDS011;33272;51.922;7.730;2022-10-17T03:20:52;7.17;;;4.80;;
47529;SDS011;33272;51.922;7.730;2022-10-17T03:23:21;9.37;;;5.07;;
47529;SDS011;33272;51.922;7.730;2022-10-17T03:25:48;5.50;;;5.00;;
47529;SDS011;33272;51.922;7.730;2022-10-17T03:28:15;5.53;;;5.03;;
47529;SDS011;33272;51.922;7.730;2022-10-17T03:30:42;6.53;;;5.37;;
47529;SDS011;33272;51.922;7.730;2022-10-17T03:33:09;6.97;;;5.53;;
47529;SDS011;33272;51.922;7.730;2022-10-17T03:35:37;6.33;;;5.50;;
47529;SDS011;33272;51.922;7.730;2022-10-17T03:38:04;8.53;;;5.27;;
47529;SDS011;33272;51.922;7.730;2022-10-17T03:40:33;6.50;;;5.40;;
47529;SDS011;33272;51.922;7.730;2022-10-17T03:43:00;8.23;;;5.53;;
47529;SDS011;33272;51.922;7.730;2022-10-17T03:45:27;5.60;;;4.90;;
47529;SDS011;33272;51.922;7.730;2022-10-17T03:47:54;6.40;;;5.20;;
47529;SDS011;33272;51.922;7.730;2022-10-17T03:50:20;6.07;;;5.30;;
47529;SDS011;33272;51.922;7.730;2022-10-17T03:52:47;6.63;;;5.77;;
47529;SDS011;33272;51.922;7.730;2022-10-17T03:55:15;6.70;;;5.43;;
47529;SDS011;33272;51.922;7.730;2022-10-17T03:57:43;6.10;;;5.23;;
47529;SDS011;33272;51.922;7.730;2022-10-17T04:00:11;7.67;;;5.57;;
47529;SDS011;33272;51.922;7.730;2022-10-17T04:02:39;7.27;;;5.83;;
47529;SDS011;33272;51.922;7.730;2022-10-17T04:05:06;6.40;;;5.47;;
47529;SDS011;33272;51.922;7.730;2022-10-17T04:07:34;5.50;;;5.00;;
47529;SDS011;33272;51.922;7.730;2022-10-17T04:10:01;7.33;;;5.93;;
47529;SDS011;33272;51.922;7.730;2022-10-17T04:12:29;6.87;;;5.10;;
47529;SDS011;33272;51.922;7.730;2022-10-17T04:14:57;5.63;;;5.03;;
47529;SDS011;33272;51.922;7.730;2022-10-17T04:17:24;5.87;;;5.27;;
47529;SDS011;33272;51.922;7.730;2022-10-17T04:19:51;5.90;;;5.00;;
47529;SDS011;33272;51.922;7.730;2022-10-17T04:22:18;6.23;;;5.33;;
47529;SDS011;33272;51.922;7.730;2022-10-17T04:24:45;6.83;;;4.90;;
47529;SDS011;33272;51.922;7.730;2022-10-17T04:27:12;7.20;;;5.33;;
47529;SDS011;33272;51.922;7.730;2022-10-17T04:29:39;6.00;;;5.40;;
47529;SDS011;33272;51.922;7.730;2022-10-17T04:32:09;6.70;;;5.70;;
47529;SDS011;33272;51.922;7.730;2022-10-17T04:34:36;5.80;;;5.20;;
47529;SDS011;33272;51.922;7.730;2022-10-17T04:37:03;8.17;;;5.40;;
47529;SDS011;33272;51.922;7.730;2022-10-17T04:39:30;6.67;;;5.70;;
47529;SDS011;33272;51.922;7.730;2022-10-17T04:41:57;6.83;;;5.53;;
47529;SDS011;33272;51.922;7.730;2022-10-17T04:44:24;8.30;;;5.40;;
47529;SDS011;33272;51.922;7.730;2022-10-17T04:46:54;6.57;;;5.00;;
47529;SDS011;33272;51.922;7.730;2022-10-17T04:49:23;6.67;;;5.33;;
47529;SDS011;33272;51.922;7.730;2022-10-17T04:51:50;6.93;;;5.67;;
47529;SDS011;33272;51.922;7.730;2022-10-17T04:54:17;7.53;;;5.37;;
47529;SDS011;33272;51.922;7.730;2022-10-17T04:56:44;6.97;;;5.40;;
47529;SDS011;33272;51.922;7.730;2022-10-17T04:59:12;6.57;;;5.20;;
47529;SDS011;33272;51.922;7.730;2022-10-17T05:01:39;5.87;;;5.27;;
47529;SDS011;33272;51.922;7.730;2022-10-17T05:04:06;6.13;;;5.00;;
47529;SDS011;33272;51.922;7.730;2022-10-17T05:06:35;5.23;;;4.73;;
47529;SDS011;33272;51.922;7.730;2022-10-17T05:09:02;5.90;;;5.23;;
47529;SDS011;33272;51.922;7.730;2022-10-17T05:11:30;6.23;;;5.37;;
47529;SDS011;33272;51.922;7.730;2022-10-17T05:13:57;9.97;;;5.07;;
47529;SDS011;33272;51.922;7.730;2022-10-17T05:16:26;6.13;;;4.77;;
47529;SDS011;33272;51.922;7.730;2022-10-17T05:18:55;6.87;;;5.10;;
47529;SDS011;33272;51.922;7.730;2022-10-17T05:21:24;6.80;;;5.60;;
47529;SDS011;33272;51.922;7.730;2022-10-17T05:23:54;6.07;;;5.47;;
47529;SDS011;33272;51.922;7.730;2022-10-17T05:26:22;6.53;;;4.83;;
47529;SDS011;33272;51.922;7.730;2022-10-17T05:28:50;6.67;;;4.63;;
47529;SDS011;33272;51.922;7.730;2022-10-17T05:31:18;6.27;;;5.10;;
47529;SDS011;33272;51.922;7.730;2022-10-17T05:33:45;5.90;;;4.77;;
47529;SDS011;33272;51.922;7.730;2022-10-17T05:36:12;5.40;;;4.87;;
47529;SDS011;33272;51.922;7.730;2022-10-17T05:38:40;6.30;;;5.70;;
47529;SDS011;33272;51.922;7.730;2022-10-17T05:41:09;8.50;;;5.50;;
47529;SDS011;33272;51.922;7.730;2022-10-17T05:43:36;6.33;;;5.70;;
47529;SDS011;33272;51.922;7.730;2022-10-17T05:46:03;7.00;;;5.37;;
47529;SDS011;33272;51.922;7.730;2022-10-17T05:48:31;6.60;;;5.23;;
47529;SDS011;33272;51.922;7.730;2022-10-17T05:50:59;7.63;;;5.70;;
47529;SDS011;33272;51.922;7.730;2022-10-17T05:53:29;7.77;;;5.87;;
47529;SDS011;33272;51.922;7.730;2022-10-17T05:55:57;12.53;;;6.33;;
47529;SDS011;33272;51.922;7.730;2022-10-17T05:58:26;6.80;;;5.93;;
47529;SDS011;33272;51.922;7.730;2022-10-17T06:00:56;7.27;;;6.03;;
47529;SDS011;33272;51.922;7.730;2022-10-17T06:03:24;7.43;;;6.23;;
47529;SDS011;33272;51.922;7.730;2022-10-17T06:05:51;7.67;;;5.70;;
47529;SDS011;33272;51.922;7.730;2022-10-17T06:08:18;10.17;;;5.77;;
47529;SDS011;33272;51.922;7.730;2022-10-17T06:10:46;6.10;;;5.50;;
47529;SDS011;33272;51.922;7.730;2022-10-17T06:13:13;7.80;;;6.00;;
47529;SDS011;33272;51.922;7.730;2022-10-17T06:15:42;8.57;;;5.77;;
47529;SDS011;33272;51.922;7.730;2022-10-17T06:18:09;7.83;;;5.97;;
47529;SDS011;33272;51.922;7.730;2022-10-17T06:20:37;8.73;;;5.50;;
47529;SDS011;33272;51.922;7.730;2022-10-17T06:23:04;7.63;;;6.23;;
47529;SDS011;33272;51.922;7.730;2022-10-17T06:25:31;7.63;;;6.47;;
47529;SDS011;33272;51.922;7.730;2022-10-17T06:27:59;7.87;;;5.63;;
47529;SDS011;33272;51.922;7.730;2022-10-17T06:30:26;6.87;;;5.63;;
47529;SDS011;33272;51.922;7.730;2022-10-17T06:32:54;9.00;;;5.97;;
47529;SDS011;33272;51.922;7.730;2022-10-17T06:35:21;7.40;;;6.03;;
47529;SDS011;33272;51.922;7.730;2022-10-17T06:37:48;8.60;;;6.03;;
47529;SDS011;33272;51.922;7.730;2022-10-17T06:40:15;7.37;;;5.53;;
47529;SDS011;33272;51.922;7.730;2022-10-17T06:42:42;8.67;;;5.50;;
47529;SDS011;33272;51.922;7.730;2022-10-17T06:45:09;7.87;;;5.60;;
47529;SDS011;33272;51.922;7.730;2022-10-17T06:47:36;6.60;;;5.10;;
47529;SDS011;33272;51.922;7.730;2022-10-17T06:50:05;6.60;;;5.77;;
47529;SDS011;33272;51.922;7.730;2022-10-17T06:52:33;6.57;;;5.87;;
47529;SDS011;33272;51.922;7.730;2022-10-17T06:55:00;6.80;;;5.33;;
47529;SDS011;33272;51.922;7.730;2022-10-17T06:57:26;7.47;;;5.70;;
47529;SDS011;33272;51.922;7.730;2022-10-17T06:59:53;7.30;;;5.83;;
47529;SDS011;33272;51.922;7.730;2022-10-17T07:02:21;7.27;;;5.73;;
47529;SDS011;33272;51.922;7.730;2022-10-17T07:04:49;6.37;;;5.33;;
47529;SDS011;33272;51.922;7.730;2022-10-17T07:07:18;8.70;;;5.93;;
47529;SDS011;33272;51.922;7.730;2022-10-17T07:09:45;7.33;;;5.37;;
47529;SDS011;33272;51.922;7.730;2022-10-17T07:12:12;7.47;;;5.50;;
47529;SDS011;33272;51.922;7.730;2022-10-17T07:14:38;7.37;;;5.70;;
47529;SDS011;33272;51.922;7.730;2022-10-17T07:17:06;6.27;;;5.47;;
47529;SDS011;33272;51.922;7.730;2022-10-17T07:19:34;5.87;;;5.37;;
47529;SDS011;33272;51.922;7.730;2022-10-17T07:22:01;5.87;;;5.00;;
47529;SDS011;33272;51.922;7.730;2022-10-17T07:24:29;6.67;;;4.50;;
47529;SDS011;33272;51.922;7.730;2022-10-17T07:26:57;6.53;;;5.37;;
47529;SDS011;33272;51.922;7.730;2022-10-17T07:29:24;8.80;;;5.47;;
47529;SDS011;33272;51.922;7.730;2022-10-17T07:31:51;8.40;;;5.33;;
47529;SDS011;33272;51.922;7.730;2022-10-17T07:34:18;6.20;;;5.07;;
47529;SDS011;33272;51.922;7.730;2022-10-17T07:36:45;6.93;;;5.10;;
47529;SDS011;33272;51.922;7.730;2022-10-17T07:39:12;7.60;;;5.07;;
47529;SDS011;33272;51.922;7.730;2022-10-17T07:41:40;6.43;;;5.40;;
47529;SDS011;33272;51.922;7.730;2022-10-17T07:44:07;6.53;;;4.83;;
47529;SDS011;33272;51.922;7.730;2022-10-17T07:46:34;5.60;;;5.10;;
47529;SDS011;33272;51.922;7.730;2022-10-17T07:49:01;6.43;;;5.13;;
47529;SDS011;33272;51.922;7.730;2022-10-17T07:51:28;6.50;;;5.00;;
47529;SDS011;33272;51.922;7.730;2022-10-17T07:53:55;6.30;;;4.90;;
47529;SDS011;33272;51.922;7.730;2022-10-17T07:56:22;5.87;;;4.90;;
47529;SDS011;33272;51.922;7.730;2022-10-17T07:58:50;4.97;;;4.53;;
47529;SDS011;33272;51.922;7.730;2022-10-17T08:01:18;6.73;;;4.87;;
47529;SDS011;33272;51.922;7.730;2022-10-17T08:03:45;7.83;;;3.83;;
47529;SDS011;33272;51.922;7.730;2022-10-17T08:06:13;6.03;;;4.50;;
47529;SDS011;33272;51.922;7.730;2022-10-17T08:08:41;5.90;;;4.63;;
47529;SDS011;33272;51.922;7.730;2022-10-17T08:11:10;5.57;;;4.50;;
47529;SDS011;33272;51.922;7.730;2022-10-17T08:13:40;5.27;;;4.57;;
47529;SDS011;33272;51.922;7.730;2022-10-17T08:16:09;5.20;;;4.70;;
47529;SDS011;33272;51.922;7.730;2022-10-17T08:18:38;8.83;;;4.70;;
47529;SDS011;33272;51.922;7.730;2022-10-17T08:21:06;7.67;;;4.37;;
47529;SDS011;33272;51.922;7.730;2022-10-17T08:23:34;4.17;;;3.73;;
47529;SDS011;33272;51.922;7.730;2022-10-17T08:26:03;6.30;;;4.43;;
47529;SDS011;33272;51.922;7.730;2022-10-17T08:28:34;6.93;;;4.43;;
47529;SDS011;33272;51.922;7.730;2022-10-17T08:31:03;6.57;;;4.27;;
47529;SDS011;33272;51.922;7.730;2022-10-17T08:33:33;4.97;;;3.90;;
47529;SDS011;33272;51.922;7.730;2022-10-17T08:36:00;4.30;;;3.73;;
47529;SDS011;33272;51.922;7.730;2022-10-17T08:38:29;5.20;;;3.87;;
47529;SDS011;33272;51.922;7.730;2022-10-17T08:40:59;6.40;;;3.90;;
47529;SDS011;33272;51.922;7.730;2022-10-17T08:43:32;7.37;;;4.17;;
47529;SDS011;33272;51.922;7.730;2022-10-17T08:46:26;6.63;;;4.27;;
47529;SDS011;33272;51.922;7.730;2022-10-17T08:48:57;7.57;;;4.60;;
47529;SDS011;33272;51.922;7.730;2022-10-17T08:51:26;7.90;;;4.73;;
47529;SDS011;33272;51.922;7.730;2022-10-17T08:54:00;6.27;;;4.53;;
47529;SDS011;33272;51.922;7.730;2022-10-17T08:56:37;6.53;;;4.20;;
47529;SDS011;33272;51.922;7.730;2022-10-17T08:59:09;7.20;;;3.90;;
47529;SDS011;33272;51.922;7.730;2022-10-17T09:01:39;7.50;;;4.27;;
47529;SDS011;33272;51.922;7.730;2022-10-17T09:04:30;4.73;;;4.20;;
47529;SDS011;33272;51.922;7.730;2022-10-17T09:07:15;6.63;;;3.93;;
47529;SDS011;33272;51.922;7.730;2022-10-17T09:09:54;5.80;;;3.93;;
47529;SDS011;33272;51.922;7.730;2022-10-17T09:12:30;6.13;;;3.93;;
47529;SDS011;33272;51.922;7.730;2022-10-17T09:15:19;6.50;;;3.80;;
47529;SDS011;33272;51.922;7.730;2022-10-17T09:18:08;7.77;;;3.80;;
47529;SDS011;33272;51.922;7.730;2022-10-17T09:20:42;3.80;;;3.43;;
47529;SDS011;33272;51.922;7.730;2022-10-17T09:23:14;5.37;;;3.23;;
47529;SDS011;33272;51.922;7.730;2022-10-17T09:25:48;5.10;;;3.30;;
47529;SDS011;33272;51.922;7.730;2022-10-17T09:28:19;5.50;;;3.17;;
47529;SDS011;33272;51.922;7.730;2022-10-17T09:30:57;5.33;;;3.60;;
47529;SDS011;33272;51.922;7.730;2022-10-17T09:33:28;6.10;;;3.23;;
47529;SDS011;33272;51.922;7.730;2022-10-17T09:36:14;4.97;;;3.43;;
47529;SDS011;33272;51.922;7.730;2022-10-17T09:38:46;4.63;;;3.30;;
47529;SDS011;33272;51.922;7.730;2022-10-17T09:41:18;5.87;;;3.57;;
47529;SDS011;33272;51.922;7.730;2022-10-17T09:43:47;5.93;;;3.47;;
47529;SDS011;33272;51.922;7.730;2022-10-17T09:46:18;3.77;;;3.37;;
47529;SDS011;33272;51.922;7.730;2022-10-17T09:48:53;4.67;;;3.00;;
47529;SDS011;33272;51.922;7.730;2022-10-17T09:51:27;7.07;;;3.03;;
47529;SDS011;33272;51.922;7.730;2022-10-17T09:53:58;5.17;;;3.10;;
47529;SDS011;33272;51.922;7.730;2022-10-17T09:56:28;6.27;;;3.03;;
47529;SDS011;33272;51.922;7.730;2022-10-17T09:58:56;3.30;;;3.00;;
47529;SDS011;33272;51.922;7.730;2022-10-17T10:01:24;5.90;;;3.20;;
47529;SDS011;33272;51.922;7.730;2022-10-17T10:04:08;6.80;;;3.20;;
47529;SDS011;33272;51.922;7.730;2022-10-17T10:06:39;4.87;;;3.00;;
47529;SDS011;33272;51.922;7.730;2022-10-17T10:09:16;5.83;;;2.93;;
47529;SDS011;33272;51.922;7.730;2022-10-17T10:11:50;5.97;;;3.17;;
47529;SDS011;33272;51.922;7.730;2022-10-17T10:14:20;5.97;;;3.40;;
47529;SDS011;33272;51.922;7.730;2022-10-17T10:16:53;6.23;;;2.90;;
47529;SDS011;33272;51.922;7.730;2022-10-17T10:19:24;3.33;;;2.90;;
47529;SDS011;33272;51.922;7.730;2022-10-17T10:21:57;4.80;;;3.30;;
47529;SDS011;33272;51.922;7.730;2022-10-17T10:24:26;7.67;;;3.40;;
47529;SDS011;33272;51.922;7.730;2022-10-17T10:26:55;3.23;;;2.93;;
47529;SDS011;33272;51.922;7.730;2022-10-17T10:29:27;7.70;;;3.73;;
47529;SDS011;33272;51.922;7.730;2022-10-17T10:32:06;5.20;;;3.20;;
47529;SDS011;33272;51.922;7.730;2022-10-17T10:34:35;5.27;;;3.10;;
47529;SDS011;33272;51.922;7.730;2022-10-17T10:37:14;6.10;;;3.40;;
47529;SDS011;33272;51.922;7.730;2022-10-17T10:39:46;4.80;;;2.97;;
47529;SDS011;33272;51.922;7.730;2022-10-17T10:42:17;4.77;;;3.27;;
47529;SDS011;33272;51.922;7.730;2022-10-17T10:44:51;6.73;;;3.40;;
47529;SDS011;33272;51.922;7.730;2022-10-17T10:47:23;4.67;;;2.60;;
47529;SDS011;33272;51.922;7.730;2022-10-17T10:50:05;6.80;;;3.10;;
47529;SDS011;33272;51.922;7.730;2022-10-17T10:52:44;5.53;;;2.50;;
47529;SDS011;33272;51.922;7.730;2022-10-17T10:55:21;4.03;;;2.67;;
47529;SDS011;33272;51.922;7.730;2022-10-17T10:57:54;8.43;;;3.23;;
47529;SDS011;33272;51.922;7.730;2022-10-17T11:00:26;4.77;;;2.80;;
47529;SDS011;33272;51.922;7.730;2022-10-17T11:02:58;4.37;;;2.80;;
47529;SDS011;33272;51.922;7.730;2022-10-17T11:05:36;6.63;;;3.23;;
47529;SDS011;33272;51.922;7.730;2022-10-17T11:08:13;7.73;;;3.27;;
47529;SDS011;33272;51.922;7.730;2022-10-17T11:10:56;4.90;;;3.10;;
47529;SDS011;33272;51.922;7.730;2022-10-17T11:13:33;5.43;;;2.67;;
47529;SDS011;33272;51.922;7.730;2022-10-17T11:16:14;8.37;;;3.20;;
47529;SDS011;33272;51.922;7.730;2022-10-17T11:18:52;5.77;;;2.93;;
47529;SDS011;33272;51.922;7.730;2022-10-17T11:21:30;6.30;;;2.87;;
47529;SDS011;33272;51.922;7.730;2022-10-17T11:24:09;6.13;;;3.40;;
47529;SDS011;33272;51.922;7.730;2022-10-17T11:26:45;5.60;;;2.90;;
47529;SDS011;33272;51.922;7.730;2022-10-17T11:29:20;3.30;;;2.97;;
47529;SDS011;33272;51.922;7.730;2022-10-17T11:31:52;6.13;;;2.90;;
47529;SDS011;33272;51.922;7.730;2022-10-17T11:34:23;5.73;;;3.40;;
47529;SDS011;33272;51.922;7.730;2022-10-17T11:36:54;6.57;;;3.43;;
47529;SDS011;33272;51.922;7.730;2022-10-17T11:39:28;4.90;;;3.23;;
47529;SDS011;33272;51.922;7.730;2022-10-17T11:42:09;7.67;;;3.23;;
47529;SDS011;33272;51.922;7.730;2022-10-17T11:44:42;6.60;;;3.07;;
47529;SDS011;33272;51.922;7.730;2022-10-17T11:47:11;5.43;;;3.30;;
47529;SDS011;33272;51.922;7.730;2022-10-17T11:49:49;5.73;;;3.00;;
47529;SDS011;33272;51.922;7.730;2022-10-17T11:52:26;6.80;;;3.60;;
47529;SDS011;33272;51.922;7.730;2022-10-17T11:55:02;6.83;;;3.07;;
47529;SDS011;33272;51.922;7.730;2022-10-17T11:57:39;4.40;;;3.33;;
47529;SDS011;33272;51.922;7.730;2022-10-17T12:00:21;4.07;;;3.00;;
47529;SDS011;33272;51.922;7.730;2022-10-17T12:03:19;3.63;;;2.93;;
47529;SDS011;33272;51.922;7.730;2022-10-17T12:06:02;5.37;;;3.20;;
47529;SDS011;33272;51.922;7.730;2022-10-17T12:08:38;6.90;;;3.10;;
47529;SDS011;33272;51.922;7.730;2022-10-17T12:11:16;5.10;;;3.03;;
47529;SDS011;33272;51.922;7.730;2022-10-17T12:13:59;4.70;;;3.23;;
47529;SDS011;33272;51.922;7.730;2022-10-17T12:16:37;6.03;;;2.77;;
47529;SDS011;33272;51.922;7.730;2022-10-17T12:19:26;9.37;;;3.37;;
47529;SDS011;33272;51.922;7.730;2022-10-17T12:21:59;4.63;;;3.27;;
47529;SDS011;33272;51.922;7.730;2022-10-17T12:24:43;6.80;;;3.03;;
47529;SDS011;33272;51.922;7.730;2022-10-17T12:27:22;5.43;;;2.90;;
47529;SDS011;33272;51.922;7.730;2022-10-17T12:30:17;4.27;;;3.00;;
47529;SDS011;33272;51.922;7.730;2022-10-17T12:32:58;5.23;;;3.00;;
47529;SDS011;33272;51.922;7.730;2022-10-17T12:35:39;4.80;;;2.80;;
47529;SDS011;33272;51.922;7.730;2022-10-17T12:40:57;5.30;;;3.20;;
47529;SDS011;33272;51.922;7.730;2022-10-17T12:43:42;4.20;;;3.20;;
47529;SDS011;33272;51.922;7.730;2022-10-17T12:46:12;4.07;;;2.60;;
47529;SDS011;33272;51.922;7.730;2022-10-17T12:49:38;4.00;;;2.53;;
47529;SDS011;33272;51.922;7.730;2022-10-17T12:52:17;5.97;;;3.13;;
47529;SDS011;33272;51.922;7.730;2022-10-17T12:55:24;5.30;;;2.93;;
47529;SDS011;33272;51.922;7.730;2022-10-17T12:57:55;4.40;;;2.77;;
47529;SDS011;33272;51.922;7.730;2022-10-17T13:00:30;7.63;;;3.10;;
47529;SDS011;33272;51.922;7.730;2022-10-17T13:03:03;3.90;;;2.67;;
47529;SDS011;33272;51.922;7.730;2022-10-17T13:05:39;3.10;;;2.40;;
47529;SDS011;33272;51.922;7.730;2022-10-17T13:08:13;4.90;;;2.60;;
47529;SDS011;33272;51.922;7.730;2022-10-17T13:10:44;4.00;;;2.93;;
47529;SDS011;33272;51.922;7.730;2022-10-17T13:13:14;6.10;;;2.90;;
47529;SDS011;33272;51.922;7.730;2022-10-17T13:15:46;6.07;;;3.57;;
47529;SDS011;33272;51.922;7.730;2022-10-17T13:18:18;4.93;;;2.73;;
47529;SDS011;33272;51.922;7.730;2022-10-17T13:20:55;5.20;;;2.73;;
47529;SDS011;33272;51.922;7.730;2022-10-17T13:23:28;5.40;;;3.00;;
47529;SDS011;33272;51.922;7.730;2022-10-17T13:26:02;6.50;;;3.37;;
47529;SDS011;33272;51.922;7.730;2022-10-17T13:28:31;5.70;;;3.90;;
47529;SDS011;33272;51.922;7.730;2022-10-17T13:30:58;6.73;;;3.20;;
47529;SDS011;33272;51.922;7.730;2022-10-17T13:33:27;5.00;;;3.00;;
47529;SDS011;33272;51.922;7.730;2022-10-17T13:36:00;4.90;;;3.10;;
47529;SDS011;33272;51.922;7.730;2022-10-17T13:38:32;6.67;;;3.17;;
47529;SDS011;33272;51.922;7.730;2022-10-17T13:41:01;4.80;;;3.60;;
47529;SDS011;33272;51.922;7.730;2022-10-17T13:43:29;6.27;;;3.50;;
47529;SDS011;33272;51.922;7.730;2022-10-17T13:45:58;4.20;;;3.17;;
47529;SDS011;33272;51.922;7.730;2022-10-17T13:48:30;5.43;;;3.23;;
47529;SDS011;33272;51.922;7.730;2022-10-17T13:51:04;5.20;;;4.07;;
47529;SDS011;33272;51.922;7.730;2022-10-17T13:53:33;5.93;;;3.50;;
47529;SDS011;33272;51.922;7.730;2022-10-17T13:56:04;3.43;;;3.13;;
47529;SDS011;33272;51.922;7.730;2022-10-17T13:58:44;6.63;;;3.60;;
47529;SDS011;33272;51.922;7.730;2022-10-17T14:01:13;8.07;;;4.07;;
47529;SDS011;33272;51.922;7.730;2022-10-17T14:03:42;4.67;;;3.67;;
47529;SDS011;33272;51.922;7.730;2022-10-17T14:06:15;5.43;;;3.40;;
47529;SDS011;33272;51.922;7.730;2022-10-17T14:08:48;4.30;;;3.50;;
47529;SDS011;33272;51.922;7.730;2022-10-17T14:11:22;10.23;;;3.83;;
47529;SDS011;33272;51.922;7.730;2022-10-17T14:13:54;4.73;;;3.30;;
47529;SDS011;33272;51.922;7.730;2022-10-17T14:16:23;5.23;;;3.60;;
47529;SDS011;33272;51.922;7.730;2022-10-17T14:18:52;7.33;;;3.70;;
47529;SDS011;33272;51.922;7.730;2022-10-17T14:21:22;7.43;;;3.90;;
47529;SDS011;33272;51.922;7.730;2022-10-17T14:26:46;6.23;;;3.63;;
47529;SDS011;33272;51.922;7.730;2022-10-17T14:29:19;9.37;;;3.63;;
47529;SDS011;33272;51.922;7.730;2022-10-17T14:31:55;7.97;;;3.53;;
47529;SDS011;33272;51.922;7.730;2022-10-17T14:34:26;5.53;;;3.77;;
47529;SDS011;33272;51.922;7.730;2022-10-17T14:36:59;5.67;;;4.13;;
47529;SDS011;33272;51.922;7.730;2022-10-17T14:39:27;5.40;;;3.80;;
47529;SDS011;33272;51.922;7.730;2022-10-17T14:41:55;4.00;;;3.43;;
47529;SDS011;33272;51.922;7.730;2022-10-17T14:44:23;4.43;;;4.03;;
47529;SDS011;33272;51.922;7.730;2022-10-17T14:46:54;5.83;;;3.97;;
47529;SDS011;33272;51.922;7.730;2022-10-17T14:49:30;6.50;;;3.80;;
47529;SDS011;33272;51.922;7.730;2022-10-17T14:52:25;5.00;;;3.97;;
47529;SDS011;33272;51.922;7.730;2022-10-17T14:54:55;5.20;;;3.73;;
47529;SDS011;33272;51.922;7.730;2022-10-17T14:57:25;7.17;;;4.60;;
47529;SDS011;33272;51.922;7.730;2022-10-17T15:00:06;5.67;;;3.57;;
47529;SDS011;33272;51.922;7.730;2022-10-17T15:02:38;6.40;;;4.13;;
47529;SDS011;33272;51.922;7.730;2022-10-17T15:05:05;7.53;;;4.60;;
47529;SDS011;33272;51.922;7.730;2022-10-17T15:07:34;6.67;;;4.70;;
47529;SDS011;33272;51.922;7.730;2022-10-17T15:10:01;6.27;;;4.33;;
47529;SDS011;33272;51.922;7.730;2022-10-17T15:12:29;9.47;;;4.47;;
47529;SDS011;33272;51.922;7.730;2022-10-17T15:14:56;8.30;;;3.53;;
47529;SDS011;33272;51.922;7.730;2022-10-17T15:17:24;6.63;;;3.60;;
47529;SDS011;33272;51.922;7.730;2022-10-17T15:19:54;4.70;;;4.10;;
47529;SDS011;33272;51.922;7.730;2022-10-17T15:22:22;5.50;;;4.07;;
47529;SDS011;33272;51.922;7.730;2022-10-17T15:24:50;9.00;;;4.17;;